createdAt,value
2023-03-19T00:00:35.250Z,71.53
2023-03-19T00:01:31.921Z,71.35
2023-03-19T00:02:28.593Z,71.53
2023-03-19T00:03:27.259Z,71.68
2023-03-19T00:04:25.216Z,71.96
2023-03-19T00:05:21.809Z,71.52
2023-03-19T00:06:18.763Z,71.73
2023-03-19T00:07:16.504Z,71.17
2023-03-19T00:08:13.149Z,71.83
2023-03-19T00:09:10.012Z,71.51
2023-03-19T00:10:06.953Z,70.74
2023-03-19T00:11:12.507Z,69.74
2023-03-19T00:12:09.786Z,68.89
2023-03-19T00:13:07.141Z,69.24
2023-03-19T00:14:04.276Z,70.70
2023-03-19T00:15:01.315Z,70.57
2023-03-19T00:15:57.963Z,70.86
2023-03-19T00:16:54.788Z,71.30
2023-03-19T00:17:51.701Z,72.11
2023-03-19T00:18:48.285Z,73.07
2023-03-19T00:19:44.857Z,73.99
2023-03-19T00:20:41.638Z,74.51
2023-03-19T00:21:38.234Z,75.88
2023-03-19T00:22:34.856Z,76.22
2023-03-19T00:23:31.896Z,76.97
2023-03-19T00:24:29.049Z,76.42
2023-03-19T00:25:25.889Z,76.22
2023-03-19T00:26:22.486Z,76.04
2023-03-19T00:27:19.097Z,75.23
2023-03-19T00:28:15.719Z,75.48
2023-03-19T00:29:12.984Z,75.50
2023-03-19T00:30:10.252Z,74.93
2023-03-19T00:31:15.518Z,75.79
2023-03-19T00:32:12.282Z,75.76
2023-03-19T00:33:09.178Z,75.98
2023-03-19T00:34:05.858Z,75.98
2023-03-19T00:35:03.771Z,76.31
2023-03-19T00:36:00.750Z,76.07
2023-03-19T00:36:57.477Z,75.01
2023-03-19T00:37:55.389Z,73.51
2023-03-19T00:38:52.239Z,72.10
2023-03-19T00:39:49.199Z,70.75
2023-03-19T00:40:45.793Z,70.90
2023-03-19T00:41:50.425Z,71.48
2023-03-19T00:42:47.143Z,72.43
2023-03-19T00:43:43.877Z,73.71
2023-03-19T00:44:40.573Z,73.92
2023-03-19T00:45:37.164Z,74.52
2023-03-19T00:46:34.135Z,75.34
2023-03-19T00:47:30.722Z,76.05
2023-03-19T00:48:27.310Z,76.24
2023-03-19T00:49:23.960Z,76.30
2023-03-19T00:50:20.601Z,76.83
2023-03-19T00:51:17.194Z,76.80
2023-03-19T00:52:13.840Z,77.24
2023-03-19T00:53:10.504Z,77.79
2023-03-19T00:54:07.119Z,78.40
2023-03-19T00:55:04.412Z,78.00
2023-03-19T00:56:01.332Z,77.39
2023-03-19T00:56:58.081Z,76.75
2023-03-19T00:57:54.678Z,76.47
2023-03-19T00:58:51.890Z,76.22
2023-03-19T00:59:48.505Z,75.96
2023-03-19T01:00:45.379Z,75.98
2023-03-19T01:01:42.200Z,76.15
2023-03-19T01:02:38.889Z,76.68
2023-03-19T01:03:36.694Z,76.73
2023-03-19T01:04:33.383Z,76.56
2023-03-19T01:05:30.532Z,76.40
2023-03-19T01:06:27.282Z,75.97
2023-03-19T01:07:24.064Z,75.49
2023-03-19T01:08:20.966Z,76.05
2023-03-19T01:09:17.864Z,76.01
2023-03-19T01:10:14.518Z,75.60
2023-03-19T01:11:15.309Z,75.84
2023-03-19T01:12:11.995Z,74.38
2023-03-19T01:13:08.705Z,74.09
2023-03-19T01:14:05.420Z,74.82
2023-03-19T01:15:02.989Z,76.02
2023-03-19T01:15:59.678Z,76.79
2023-03-19T01:16:56.915Z,77.20
2023-03-19T01:17:53.645Z,77.01
2023-03-19T01:18:50.260Z,76.95
2023-03-19T01:19:47.483Z,76.68
2023-03-19T01:20:44.203Z,76.53
2023-03-19T01:21:41.275Z,76.24
2023-03-19T01:22:37.960Z,75.56
2023-03-19T01:23:34.604Z,76.19
2023-03-19T01:24:32.130Z,75.45
2023-03-19T01:25:28.828Z,75.96
2023-03-19T01:26:26.166Z,76.21
2023-03-19T01:27:22.964Z,75.67
2023-03-19T01:28:20.001Z,75.54
2023-03-19T01:29:16.614Z,75.71
2023-03-19T01:30:13.559Z,76.25
2023-03-19T01:31:10.282Z,75.95
2023-03-19T01:32:07.588Z,75.56
2023-03-19T01:33:04.276Z,75.01
2023-03-19T01:34:01.886Z,74.69
2023-03-19T01:34:58.472Z,74.78
2023-03-19T01:35:55.668Z,74.53
2023-03-19T01:36:52.642Z,74.71
2023-03-19T01:37:49.220Z,74.38
2023-03-19T01:38:45.886Z,74.25
2023-03-19T01:39:42.641Z,74.17
2023-03-19T01:40:45.024Z,73.97
2023-03-19T01:41:41.852Z,74.52
2023-03-19T01:43:12.673Z,75.19
2023-03-19T01:44:30.703Z,75.60
2023-03-19T01:45:32.151Z,75.07
2023-03-19T01:46:36.462Z,74.91
2023-03-19T01:47:36.066Z,74.44
2023-03-19T01:48:39.686Z,73.68
2023-03-19T01:49:37.805Z,73.40
2023-03-19T01:50:42.073Z,74.02
2023-03-19T01:51:43.190Z,73.48
2023-03-19T01:52:39.753Z,74.21
2023-03-19T01:53:40.137Z,73.46
2023-03-19T01:54:36.819Z,74.26
2023-03-19T01:55:33.564Z,75.57
2023-03-19T01:56:33.383Z,77.16
2023-03-19T01:57:31.553Z,77.16
2023-03-19T01:58:28.762Z,76.31
2023-03-19T01:59:27.319Z,74.56
2023-03-19T02:00:24.050Z,74.18
2023-03-19T02:01:20.912Z,73.80
2023-03-19T02:02:30.564Z,74.17
2023-03-19T02:03:27.585Z,74.01
2023-03-19T02:04:27.357Z,73.37
2023-03-19T02:05:26.801Z,73.90
2023-03-19T02:06:24.637Z,75.39
2023-03-19T02:07:21.946Z,76.06
2023-03-19T02:08:22.919Z,76.76
2023-03-19T02:09:20.078Z,76.62
2023-03-19T02:10:17.675Z,76.25
2023-03-19T02:11:14.702Z,75.43
2023-03-19T02:12:12.733Z,75.40
2023-03-19T02:13:09.391Z,74.86
2023-03-19T02:14:06.223Z,74.67
2023-03-19T02:15:03.133Z,75.19
2023-03-19T02:15:59.797Z,75.94
2023-03-19T02:16:57.028Z,76.89
2023-03-19T02:17:54.591Z,77.46
2023-03-19T02:18:51.480Z,78.46
2023-03-19T02:19:57.913Z,78.80
2023-03-19T02:21:06.853Z,78.84
2023-03-19T02:22:05.167Z,78.94
2023-03-19T02:23:14.230Z,79.00
2023-03-19T02:24:25.275Z,79.63
2023-03-19T02:25:28.737Z,80.06
2023-03-19T02:26:28.779Z,79.57
2023-03-19T02:27:28.396Z,81.19
2023-03-19T02:28:25.526Z,82.03
2023-03-19T02:29:22.194Z,82.21
2023-03-19T02:30:31.167Z,82.05
2023-03-19T02:31:28.135Z,82.29
2023-03-19T02:32:25.034Z,83.26
2023-03-19T02:33:21.780Z,83.42
2023-03-19T02:34:24.001Z,83.04
2023-03-19T02:35:20.964Z,82.47
2023-03-19T02:36:20.301Z,81.84
2023-03-19T02:37:22.579Z,81.81
2023-03-19T02:38:22.913Z,81.08
2023-03-19T02:39:28.315Z,81.11
2023-03-19T02:40:29.478Z,81.42
2023-03-19T02:41:26.710Z,80.76
2023-03-19T02:42:26.048Z,81.51
2023-03-19T02:43:23.415Z,80.90
2023-03-19T02:44:20.797Z,80.97
2023-03-19T02:45:18.286Z,81.33
2023-03-19T02:46:14.923Z,80.88
2023-03-19T02:47:12.103Z,80.58
2023-03-19T02:48:08.806Z,80.60
2023-03-19T02:49:05.514Z,80.59
2023-03-19T02:50:02.158Z,80.97
2023-03-19T02:50:59.230Z,80.60
2023-03-19T02:51:55.992Z,81.22
2023-03-19T02:52:52.588Z,81.34
2023-03-19T02:53:49.155Z,81.36
2023-03-19T02:54:46.719Z,81.37
2023-03-19T02:55:43.428Z,81.18
2023-03-19T02:56:40.527Z,81.96
2023-03-19T02:57:37.126Z,82.57
2023-03-19T02:58:33.774Z,83.03
2023-03-19T02:59:31.143Z,81.72
2023-03-19T03:00:28.290Z,81.58
2023-03-19T03:01:25.017Z,81.84
2023-03-19T03:02:21.741Z,82.11
2023-03-19T03:03:18.709Z,82.08
2023-03-19T03:04:16.609Z,82.85
2023-03-19T03:05:14.386Z,83.30
2023-03-19T03:06:11.119Z,82.82
2023-03-19T03:07:08.675Z,82.30
2023-03-19T03:08:05.585Z,82.85
2023-03-19T03:09:02.241Z,82.72
2023-03-19T03:09:59.486Z,82.39
2023-03-19T03:10:56.094Z,82.62
2023-03-19T03:11:53.296Z,82.94
2023-03-19T03:12:49.878Z,83.35
2023-03-19T03:13:46.496Z,84.04
2023-03-19T03:14:43.392Z,82.85
2023-03-19T03:15:40.107Z,81.49
2023-03-19T03:16:38.008Z,80.37
2023-03-19T03:17:38.859Z,79.35
2023-03-19T03:18:36.198Z,78.06
2023-03-19T03:19:32.822Z,77.38
2023-03-19T03:20:30.044Z,76.54
2023-03-19T03:21:26.790Z,76.27
2023-03-19T03:22:23.461Z,76.15
2023-03-19T03:23:20.807Z,77.44
2023-03-19T03:24:17.512Z,78.71
2023-03-19T03:25:14.959Z,80.28
2023-03-19T03:26:12.269Z,81.43
2023-03-19T03:27:09.510Z,81.82
2023-03-19T03:28:06.195Z,81.97
2023-03-19T03:29:02.814Z,82.32
2023-03-19T03:30:00.462Z,81.65
2023-03-19T03:31:00.270Z,81.95
2023-03-19T03:31:57.465Z,81.75
2023-03-19T03:32:54.539Z,82.23
2023-03-19T03:33:51.180Z,83.10
2023-03-19T03:34:47.814Z,83.06
2023-03-19T03:35:44.520Z,82.59
2023-03-19T03:36:41.217Z,82.64
2023-03-19T03:37:38.196Z,82.38
2023-03-19T03:38:34.852Z,82.72
2023-03-19T03:39:31.591Z,82.28
2023-03-19T03:40:28.335Z,81.49
2023-03-19T03:41:25.008Z,81.27
2023-03-19T03:42:21.811Z,81.24
2023-03-19T03:43:20.816Z,81.73
2023-03-19T03:44:17.510Z,82.37
2023-03-19T03:45:14.444Z,83.24
2023-03-19T03:46:11.406Z,82.92
2023-03-19T03:47:08.192Z,82.92
2023-03-19T03:48:05.013Z,82.71
2023-03-19T03:49:01.800Z,83.10
2023-03-19T03:49:58.409Z,82.93
2023-03-19T03:50:55.050Z,83.68
2023-03-19T03:51:52.601Z,83.65
2023-03-19T03:52:49.161Z,83.68
2023-03-19T03:53:46.476Z,83.68
2023-03-19T03:54:43.265Z,83.53
2023-03-19T03:55:40.610Z,83.33
2023-03-19T03:56:37.436Z,83.47
2023-03-19T03:57:34.018Z,82.67
2023-03-19T03:58:30.607Z,82.45
2023-03-19T03:59:27.219Z,82.02
2023-03-19T04:00:24.228Z,82.34
2023-03-19T04:01:21.474Z,81.95
2023-03-19T04:02:18.143Z,82.74
2023-03-19T04:03:15.400Z,82.19
2023-03-19T04:04:12.077Z,82.97
2023-03-19T04:05:09.260Z,82.33
2023-03-19T04:06:06.149Z,82.74
2023-03-19T04:07:02.745Z,81.87
2023-03-19T04:07:59.379Z,81.91
2023-03-19T04:08:56.552Z,82.14
2023-03-19T04:09:53.222Z,81.66
2023-03-19T04:10:49.849Z,82.00
2023-03-19T04:11:46.507Z,82.90
2023-03-19T04:12:43.585Z,83.14
2023-03-19T04:13:40.230Z,83.60
2023-03-19T04:14:37.477Z,83.03
2023-03-19T04:15:34.269Z,81.66
2023-03-19T04:16:30.900Z,80.56
2023-03-19T04:17:27.486Z,80.29
2023-03-19T04:18:24.129Z,81.15
2023-03-19T04:19:21.130Z,81.39
2023-03-19T04:20:18.707Z,81.67
2023-03-19T04:21:15.811Z,81.91
2023-03-19T04:22:12.886Z,81.43
2023-03-19T04:23:09.460Z,81.34
2023-03-19T04:24:06.459Z,81.01
2023-03-19T04:25:03.089Z,80.82
2023-03-19T04:26:04.825Z,81.07
2023-03-19T04:27:01.592Z,80.78
2023-03-19T04:27:58.801Z,81.16
2023-03-19T04:28:55.450Z,80.62
2023-03-19T04:29:52.048Z,80.95
2023-03-19T04:30:48.787Z,80.99
2023-03-19T04:31:45.799Z,80.63
2023-03-19T04:32:44.395Z,80.97
2023-03-19T04:33:41.174Z,81.80
2023-03-19T04:34:37.864Z,81.90
2023-03-19T04:35:34.893Z,81.89
2023-03-19T04:36:31.509Z,82.33
2023-03-19T04:37:28.222Z,82.07
2023-03-19T04:38:28.979Z,82.42
2023-03-19T04:39:26.032Z,82.61
2023-03-19T04:40:22.705Z,81.56
2023-03-19T04:41:19.403Z,81.81
2023-03-19T04:42:16.195Z,82.16
2023-03-19T04:43:12.774Z,82.94
2023-03-19T04:44:09.668Z,82.88
2023-03-19T04:45:07.011Z,83.48
2023-03-19T04:46:03.848Z,83.83
2023-03-19T04:47:00.496Z,82.91
2023-03-19T04:47:57.157Z,82.67
2023-03-19T04:48:53.881Z,82.71
2023-03-19T04:49:50.435Z,82.51
2023-03-19T04:50:47.765Z,82.98
2023-03-19T04:51:44.465Z,82.88
2023-03-19T04:52:41.168Z,82.91
2023-03-19T04:53:38.959Z,83.30
2023-03-19T04:54:35.586Z,83.76
2023-03-19T04:55:32.562Z,84.15
2023-03-19T04:56:29.551Z,83.44
2023-03-19T04:57:27.540Z,83.54
2023-03-19T04:58:24.264Z,83.80
2023-03-19T04:59:22.897Z,83.67
2023-03-19T05:00:20.611Z,83.75
2023-03-19T05:01:17.348Z,82.90
2023-03-19T05:02:14.169Z,83.05
2023-03-19T05:03:11.534Z,83.33
2023-03-19T05:04:08.773Z,83.52
2023-03-19T05:05:05.550Z,83.37
2023-03-19T05:06:02.295Z,83.67
2023-03-19T05:06:58.953Z,83.62
2023-03-19T05:07:57.378Z,83.35
2023-03-19T05:08:54.038Z,83.39
2023-03-19T05:09:50.612Z,83.23
2023-03-19T05:10:47.310Z,83.48
2023-03-19T05:11:43.880Z,83.03
2023-03-19T05:12:41.198Z,82.59
2023-03-19T05:13:38.202Z,82.50
2023-03-19T05:14:34.818Z,83.44
2023-03-19T05:15:31.571Z,83.26
2023-03-19T05:16:28.116Z,82.81
2023-03-19T05:17:26.412Z,81.99
2023-03-19T05:18:23.233Z,82.11
2023-03-19T05:19:19.943Z,82.87
2023-03-19T05:20:16.823Z,82.43
2023-03-19T05:21:13.798Z,82.28
2023-03-19T05:22:10.557Z,81.89
2023-03-19T05:23:07.341Z,82.08
2023-03-19T05:24:04.687Z,81.19
2023-03-19T05:25:01.350Z,81.13
2023-03-19T05:26:00.927Z,81.15
2023-03-19T05:26:58.124Z,81.02
2023-03-19T05:27:54.761Z,80.61
2023-03-19T05:28:51.303Z,80.80
2023-03-19T05:29:48.236Z,80.24
2023-03-19T05:30:45.004Z,80.14
2023-03-19T05:31:41.967Z,80.02
2023-03-19T05:32:40.595Z,79.31
2023-03-19T05:33:37.458Z,78.84
2023-03-19T05:34:34.321Z,78.21
2023-03-19T05:35:31.113Z,77.69
2023-03-19T05:36:28.295Z,78.61
2023-03-19T05:37:25.237Z,78.02
2023-03-19T05:38:22.280Z,78.69
2023-03-19T05:39:19.649Z,78.21
2023-03-19T05:40:16.706Z,78.27
2023-03-19T05:41:13.530Z,78.67
2023-03-19T05:42:10.200Z,77.92
2023-03-19T05:43:06.864Z,77.97
2023-03-19T05:44:04.386Z,77.79
2023-03-19T05:45:00.935Z,77.77
2023-03-19T05:45:58.042Z,77.25
2023-03-19T05:46:54.753Z,76.81
2023-03-19T05:47:51.351Z,77.31
2023-03-19T05:48:47.972Z,76.69
2023-03-19T05:49:44.702Z,76.47
2023-03-19T05:50:42.582Z,77.15
2023-03-19T05:51:39.193Z,77.05
2023-03-19T05:52:36.572Z,77.10
2023-03-19T05:53:33.980Z,77.01
2023-03-19T05:54:30.820Z,76.50
2023-03-19T05:55:27.447Z,76.46
2023-03-19T05:56:24.157Z,75.72
2023-03-19T05:57:21.285Z,75.37
2023-03-19T05:58:17.909Z,74.90
2023-03-19T05:59:14.813Z,73.53
2023-03-19T06:00:13.268Z,73.31
2023-03-19T06:01:09.969Z,74.11
2023-03-19T06:02:06.748Z,74.58
2023-03-19T06:03:03.731Z,75.10
2023-03-19T06:04:00.354Z,75.54
2023-03-19T06:04:56.950Z,75.11
2023-03-19T06:05:53.983Z,74.71
2023-03-19T06:06:50.778Z,75.45
2023-03-19T06:07:47.424Z,74.51
2023-03-19T06:08:44.287Z,73.81
2023-03-19T06:09:41.253Z,72.88
2023-03-19T06:10:37.948Z,72.06
2023-03-19T06:11:34.544Z,72.94
2023-03-19T06:12:31.214Z,73.24
2023-03-19T06:13:27.766Z,72.99
2023-03-19T06:14:25.616Z,73.39
2023-03-19T06:15:22.336Z,73.48
2023-03-19T06:16:19.130Z,72.29
2023-03-19T06:17:15.931Z,72.72
2023-03-19T06:18:12.499Z,71.45
2023-03-19T06:19:09.102Z,70.32
2023-03-19T06:20:06.073Z,69.54
2023-03-19T06:21:02.696Z,70.19
2023-03-19T06:21:59.310Z,70.59
2023-03-19T06:22:56.066Z,69.99
2023-03-19T06:23:52.772Z,70.84
2023-03-19T06:24:49.781Z,70.20
2023-03-19T06:25:47.088Z,69.35
2023-03-19T06:26:43.734Z,68.44
2023-03-19T06:27:40.361Z,68.09
2023-03-19T06:28:36.918Z,67.56
2023-03-19T06:29:33.469Z,68.09
2023-03-19T06:30:30.084Z,67.39
2023-03-19T06:31:27.685Z,68.07
2023-03-19T06:32:26.489Z,68.53
2023-03-19T06:33:25.893Z,68.25
2023-03-19T06:34:22.793Z,68.75
2023-03-19T06:35:19.421Z,68.08
2023-03-19T06:36:16.566Z,68.17
2023-03-19T06:37:13.145Z,68.73
2023-03-19T06:38:09.698Z,69.18
2023-03-19T06:39:06.355Z,70.03
2023-03-19T06:40:05.093Z,70.43
2023-03-19T06:41:02.602Z,69.62
2023-03-19T06:41:59.168Z,69.91
2023-03-19T06:42:56.488Z,69.54
2023-03-19T06:43:53.348Z,70.10
2023-03-19T06:44:53.008Z,69.81
2023-03-19T06:45:50.387Z,69.02
2023-03-19T06:46:47.053Z,68.73
2023-03-19T06:47:43.699Z,68.67
2023-03-19T06:48:40.340Z,68.42
2023-03-19T06:49:37.430Z,68.22
2023-03-19T06:50:34.314Z,66.71
2023-03-19T06:51:31.224Z,67.63
2023-03-19T06:52:27.769Z,67.71
2023-03-19T06:53:24.622Z,66.68
2023-03-19T06:54:21.499Z,67.56
2023-03-19T06:55:20.422Z,68.57
2023-03-19T06:56:17.043Z,67.55
2023-03-19T06:57:13.646Z,67.52
2023-03-19T06:58:10.829Z,68.40
2023-03-19T06:59:07.462Z,68.60
2023-03-19T07:00:06.275Z,67.76
2023-03-19T07:01:03.700Z,68.63
2023-03-19T07:02:00.355Z,68.10
2023-03-19T07:02:56.994Z,68.52
2023-03-19T07:03:53.768Z,67.29
2023-03-19T07:04:50.921Z,67.93
2023-03-19T07:05:51.706Z,67.47
2023-03-19T07:06:48.380Z,67.65
2023-03-19T07:07:45.009Z,66.82
2023-03-19T07:08:46.298Z,65.91
2023-03-19T07:09:42.976Z,66.73
2023-03-19T07:10:39.801Z,66.17
2023-03-19T07:11:36.832Z,66.68
2023-03-19T07:12:33.624Z,66.96
2023-03-19T07:13:30.711Z,67.01
2023-03-19T07:14:27.402Z,66.29
2023-03-19T07:15:24.098Z,66.58
2023-03-19T07:16:20.899Z,66.53
2023-03-19T07:17:17.502Z,65.95
2023-03-19T07:18:14.189Z,66.02
2023-03-19T07:19:11.620Z,64.99
2023-03-19T07:20:08.798Z,65.43
2023-03-19T07:21:05.830Z,65.32
2023-03-19T07:22:02.495Z,64.92
2023-03-19T07:22:59.329Z,65.34
2023-03-19T07:23:56.145Z,64.47
2023-03-19T07:24:52.797Z,64.54
2023-03-19T07:25:49.535Z,64.55
2023-03-19T07:26:48.948Z,63.43
2023-03-19T07:27:45.996Z,63.12
2023-03-19T07:28:42.768Z,64.63
2023-03-19T07:29:39.371Z,63.94
2023-03-19T07:30:36.311Z,62.45
2023-03-19T07:31:33.353Z,61.18
2023-03-19T07:32:30.077Z,60.39
2023-03-19T07:33:26.697Z,60.83
2023-03-19T07:34:23.515Z,60.58
2023-03-19T07:35:20.409Z,61.50
2023-03-19T07:36:17.235Z,60.56
2023-03-19T07:37:13.848Z,60.83
2023-03-19T07:38:10.560Z,62.24
2023-03-19T07:39:07.123Z,62.04
2023-03-19T07:40:05.202Z,60.88
2023-03-19T07:41:03.030Z,61.95
2023-03-19T07:41:59.961Z,61.09
2023-03-19T07:42:56.739Z,59.86
2023-03-19T07:43:53.580Z,59.43
2023-03-19T07:44:50.474Z,60.73
2023-03-19T07:45:47.198Z,59.38
2023-03-19T07:46:43.985Z,58.32
2023-03-19T07:47:40.844Z,58.34
2023-03-19T07:48:37.558Z,59.20
2023-03-19T07:49:34.335Z,59.30
2023-03-19T07:50:31.469Z,60.23
2023-03-19T07:51:28.273Z,60.04
2023-03-19T07:52:26.144Z,59.51
2023-03-19T07:53:22.989Z,59.30
2023-03-19T07:54:19.615Z,59.36
2023-03-19T07:55:16.240Z,58.88
2023-03-19T07:56:13.451Z,58.98
2023-03-19T07:57:10.058Z,58.78
2023-03-19T07:58:06.880Z,57.97
2023-03-19T07:59:03.495Z,57.73
2023-03-19T08:00:00.188Z,58.12
2023-03-19T08:00:56.920Z,58.57
2023-03-19T08:01:53.814Z,58.12
2023-03-19T08:02:50.614Z,57.90
2023-03-19T08:03:48.663Z,58.71
2023-03-19T08:04:45.636Z,58.62
2023-03-19T08:05:44.669Z,58.87
2023-03-19T08:06:41.413Z,59.08
2023-03-19T08:07:38.084Z,57.35
2023-03-19T08:08:35.117Z,57.79
2023-03-19T08:09:32.349Z,58.68
2023-03-19T08:10:29.184Z,58.42
2023-03-19T08:11:26.176Z,57.65
2023-03-19T08:12:22.814Z,58.43
2023-03-19T08:13:19.666Z,56.86
2023-03-19T08:14:19.348Z,57.21
2023-03-19T08:15:16.230Z,56.59
2023-03-19T08:16:13.645Z,58.17
2023-03-19T08:17:10.329Z,56.44
2023-03-19T08:18:07.721Z,56.24
2023-03-19T08:19:04.469Z,55.54
2023-03-19T08:20:01.220Z,55.60
2023-03-19T08:20:57.878Z,56.94
2023-03-19T08:21:54.636Z,55.83
2023-03-19T08:22:51.260Z,56.23
2023-03-19T08:23:47.828Z,57.06
2023-03-19T08:24:44.508Z,56.67
2023-03-19T08:25:41.495Z,55.50
2023-03-19T08:26:38.180Z,56.09
2023-03-19T08:27:38.173Z,56.38
2023-03-19T08:28:35.743Z,55.25
2023-03-19T08:29:32.412Z,54.86
2023-03-19T08:30:29.092Z,54.98
2023-03-19T08:31:25.808Z,55.87
2023-03-19T08:32:22.570Z,55.19
2023-03-19T08:33:19.204Z,54.67
2023-03-19T08:34:16.164Z,55.59
2023-03-19T08:35:13.271Z,53.80
2023-03-19T08:36:12.816Z,54.19
2023-03-19T08:37:09.591Z,54.51
2023-03-19T08:38:07.134Z,53.77
2023-03-19T08:39:04.315Z,54.42
2023-03-19T08:40:00.970Z,54.77
2023-03-19T08:41:02.206Z,54.22
2023-03-19T08:41:58.948Z,54.25
2023-03-19T08:42:56.520Z,54.68
2023-03-19T08:43:53.404Z,54.22
2023-03-19T08:44:50.570Z,53.82
2023-03-19T08:45:47.392Z,54.14
2023-03-19T08:46:44.254Z,53.40
2023-03-19T08:47:41.308Z,53.40
2023-03-19T08:48:40.341Z,52.70
2023-03-19T08:49:38.475Z,54.12
2023-03-19T08:50:36.000Z,54.09
2023-03-19T08:51:33.064Z,51.29
2023-03-19T08:52:29.785Z,51.82
2023-03-19T08:53:26.461Z,52.17
2023-03-19T08:54:23.268Z,52.87
2023-03-19T08:55:20.118Z,52.74
2023-03-19T08:56:16.953Z,52.95
2023-03-19T08:57:13.639Z,52.02
2023-03-19T08:58:10.341Z,53.02
2023-03-19T08:59:07.004Z,52.62
2023-03-19T09:00:05.805Z,52.24
2023-03-19T09:01:10.136Z,51.34
2023-03-19T09:02:07.521Z,51.03
2023-03-19T09:03:04.158Z,51.38
2023-03-19T09:04:01.105Z,51.37
2023-03-19T09:04:57.774Z,51.35
2023-03-19T09:05:58.808Z,51.89
2023-03-19T09:06:55.946Z,51.04
2023-03-19T09:07:53.848Z,50.97
2023-03-19T09:08:50.482Z,50.94
2023-03-19T09:09:47.148Z,51.13
2023-03-19T09:10:43.751Z,49.40
2023-03-19T09:11:40.416Z,49.55
2023-03-19T09:12:37.075Z,48.62
2023-03-19T09:13:34.464Z,50.10
2023-03-19T09:14:31.117Z,50.28
2023-03-19T09:15:27.865Z,50.59
2023-03-19T09:16:26.104Z,48.76
2023-03-19T09:17:22.961Z,50.10
2023-03-19T09:18:20.856Z,49.75
2023-03-19T09:19:17.529Z,48.66
2023-03-19T09:20:14.224Z,47.91
2023-03-19T09:21:11.299Z,48.79
2023-03-19T09:22:08.048Z,47.91
2023-03-19T09:23:04.717Z,48.92
2023-03-19T09:24:01.759Z,49.15
2023-03-19T09:24:58.437Z,49.41
2023-03-19T09:25:55.411Z,47.49
2023-03-19T09:26:52.785Z,47.85
2023-03-19T09:27:49.476Z,47.01
2023-03-19T09:28:46.573Z,48.49
2023-03-19T09:29:43.258Z,47.13
2023-03-19T09:30:39.950Z,47.42
2023-03-19T09:31:37.808Z,47.70
2023-03-19T09:32:34.426Z,47.66
2023-03-19T09:33:31.295Z,46.69
2023-03-19T09:34:28.276Z,46.62
2023-03-19T09:35:31.248Z,47.11
2023-03-19T09:36:27.912Z,47.70
2023-03-19T09:37:24.874Z,48.29
2023-03-19T09:38:22.422Z,48.75
2023-03-19T09:39:19.464Z,47.08
2023-03-19T09:40:30.299Z,45.74
2023-03-19T09:41:48.792Z,46.27
2023-03-19T09:43:04.230Z,45.07
2023-03-19T09:44:10.966Z,45.17
2023-03-19T09:45:19.401Z,45.67
2023-03-19T09:46:25.763Z,47.88
2023-03-19T09:47:37.670Z,47.83
2023-03-19T09:48:42.481Z,47.71
2023-03-19T09:49:43.307Z,45.49
2023-03-19T09:50:39.942Z,46.61
2023-03-19T09:51:46.987Z,47.23
2023-03-19T09:53:02.280Z,47.64
2023-03-19T09:54:05.022Z,45.84
2023-03-19T09:55:12.635Z,45.19
2023-03-19T09:56:14.880Z,44.09
2023-03-19T09:57:13.829Z,46.00
2023-03-19T09:58:33.201Z,44.93
2023-03-19T09:59:30.771Z,45.22
2023-03-19T10:00:36.839Z,44.36
2023-03-19T10:01:37.284Z,42.71
2023-03-19T10:02:41.961Z,45.04
2023-03-19T10:03:56.533Z,45.29
2023-03-19T10:05:05.495Z,44.93
2023-03-19T10:06:23.521Z,44.90
2023-03-19T10:07:38.233Z,45.73
2023-03-19T10:09:01.169Z,43.80
2023-03-19T10:10:16.342Z,43.86
2023-03-19T10:11:31.236Z,45.33
2023-03-19T10:13:06.412Z,45.51
2023-03-19T10:14:21.457Z,44.17
2023-03-19T10:15:29.893Z,43.30
2023-03-19T10:16:27.990Z,43.79
2023-03-19T10:17:58.411Z,45.55
2023-03-19T10:19:00.039Z,44.25
2023-03-19T10:20:06.470Z,43.46
2023-03-19T10:21:11.372Z,43.15
2023-03-19T10:22:15.899Z,43.29
2023-03-19T10:23:50.861Z,43.28
2023-03-19T10:24:50.515Z,43.38
2023-03-19T10:25:47.830Z,43.82
2023-03-19T10:26:46.054Z,43.91
2023-03-19T10:27:46.380Z,43.40
2023-03-19T10:28:46.002Z,43.04
2023-03-19T10:29:43.342Z,43.03
2023-03-19T10:30:41.359Z,42.98
2023-03-19T10:31:48.300Z,42.97
2023-03-19T10:32:53.513Z,42.97
2023-03-19T10:34:22.312Z,42.24
2023-03-19T10:35:25.004Z,41.99
2023-03-19T10:36:26.377Z,42.19
2023-03-19T10:37:26.649Z,43.47
2023-03-19T10:38:26.694Z,43.54
2023-03-19T10:39:23.763Z,43.05
2023-03-19T10:40:26.504Z,41.36
2023-03-19T10:41:57.716Z,43.03
2023-03-19T10:43:12.105Z,43.24
2023-03-19T10:44:29.582Z,40.60
2023-03-19T10:45:36.161Z,40.46
2023-03-19T10:46:40.539Z,41.43
2023-03-19T10:47:41.357Z,42.92
2023-03-19T10:48:44.378Z,43.22
2023-03-19T10:49:41.722Z,42.91
2023-03-19T10:50:43.458Z,42.46
2023-03-19T10:51:42.992Z,42.44
2023-03-19T10:52:39.742Z,41.89
2023-03-19T10:53:38.538Z,42.23
2023-03-19T10:54:40.312Z,41.12
2023-03-19T10:55:37.304Z,42.64
2023-03-19T10:56:34.473Z,41.47
2023-03-19T10:57:32.057Z,42.12
2023-03-19T10:58:31.532Z,41.22
2023-03-19T10:59:31.002Z,41.80
2023-03-19T11:00:32.441Z,43.09
2023-03-19T11:01:33.624Z,40.83
2023-03-19T11:02:32.455Z,41.81
2023-03-19T11:03:33.511Z,40.73
2023-03-19T11:04:32.350Z,40.59
2023-03-19T11:05:32.055Z,40.54
2023-03-19T11:06:36.671Z,39.51
2023-03-19T11:07:33.533Z,39.99
2023-03-19T11:08:35.773Z,41.05
2023-03-19T11:09:40.260Z,42.53
2023-03-19T11:10:37.753Z,41.51
2023-03-19T11:11:43.679Z,41.29
2023-03-19T11:12:40.720Z,42.86
2023-03-19T11:13:38.395Z,41.81
2023-03-19T11:14:36.463Z,40.15
2023-03-19T11:15:37.032Z,41.23
2023-03-19T11:16:51.434Z,41.37
2023-03-19T11:17:57.378Z,39.85
2023-03-19T11:18:54.078Z,40.66
2023-03-19T11:19:58.860Z,40.49
2023-03-19T11:21:08.524Z,42.38
2023-03-19T11:22:09.300Z,40.37
2023-03-19T11:23:20.406Z,40.89
2023-03-19T11:24:17.410Z,40.88
2023-03-19T11:25:20.605Z,40.09
2023-03-19T11:26:20.622Z,38.76
2023-03-19T11:27:17.328Z,40.77
2023-03-19T11:28:18.125Z,40.56
2023-03-19T11:29:16.367Z,40.02
2023-03-19T11:30:18.192Z,40.05
2023-03-19T11:32:20.322Z,41.67
2023-03-19T11:33:38.633Z,41.95
2023-03-19T11:34:44.341Z,40.97
2023-03-19T11:36:05.496Z,38.78
2023-03-19T11:37:17.674Z,38.14
2023-03-19T11:38:51.149Z,38.27
2023-03-19T11:39:50.866Z,38.15
2023-03-19T11:41:04.078Z,40.27
2023-03-19T11:42:04.007Z,41.41
2023-03-19T11:43:00.747Z,40.77
2023-03-19T11:44:17.666Z,40.29
2023-03-19T11:45:40.800Z,39.74
2023-03-19T11:46:54.411Z,38.58
2023-03-19T11:47:57.275Z,38.60
2023-03-19T11:49:19.869Z,39.13
2023-03-19T11:50:35.363Z,39.59
2023-03-19T11:51:51.407Z,40.00
2023-03-19T11:52:52.996Z,38.16
2023-03-19T11:54:04.946Z,37.79
2023-03-19T11:55:22.385Z,38.29
2023-03-19T11:56:47.278Z,38.78
2023-03-19T11:57:54.748Z,39.53
2023-03-19T11:58:57.912Z,37.78
2023-03-19T12:00:10.877Z,38.02
2023-03-19T12:01:23.467Z,37.98
2023-03-19T12:02:23.625Z,38.24
2023-03-19T12:03:39.025Z,37.17
2023-03-19T12:04:58.296Z,37.23
2023-03-19T12:06:01.322Z,36.67
2023-03-19T12:07:06.920Z,39.15
2023-03-19T12:08:07.406Z,39.32
2023-03-19T12:09:17.324Z,38.29
2023-03-19T12:10:27.835Z,36.93
2023-03-19T12:11:33.971Z,39.44
2023-03-19T12:12:42.510Z,37.27
2023-03-19T12:14:00.379Z,37.52
2023-03-19T12:15:20.484Z,38.72
2023-03-19T12:16:29.463Z,38.27
2023-03-19T12:18:10.948Z,37.53
2023-03-19T12:19:28.294Z,37.01
2023-03-19T12:20:54.570Z,36.76
2023-03-19T12:22:36.508Z,38.02
2023-03-19T12:23:44.992Z,37.95
2023-03-19T12:24:57.712Z,37.11
2023-03-19T12:26:06.988Z,38.08
2023-03-19T12:27:16.063Z,38.40
2023-03-19T12:28:23.842Z,38.69
2023-03-19T12:29:23.985Z,39.65
2023-03-19T12:30:41.433Z,37.79
2023-03-19T12:32:14.162Z,36.83
2023-03-19T12:33:34.721Z,37.80
2023-03-19T12:34:38.297Z,35.19
2023-03-19T12:35:38.670Z,35.98
2023-03-19T12:36:48.863Z,36.28
2023-03-19T12:37:51.592Z,36.16
2023-03-19T12:38:53.892Z,36.01
2023-03-19T12:40:04.926Z,35.12
2023-03-19T12:41:07.920Z,34.97
2023-03-19T12:42:08.646Z,37.36
2023-03-19T12:43:56.620Z,35.91
2023-03-19T12:44:57.977Z,34.40
2023-03-19T12:46:15.145Z,34.11
2023-03-19T12:47:26.838Z,35.55
2023-03-19T12:48:33.817Z,36.17
2023-03-19T12:49:43.220Z,34.49
2023-03-19T12:50:44.044Z,34.61